sensor_id;sensor_type;location;lat;lon;timestamp;pressure;altitude;pressure_sealevel;temperature;humidity
56330;BME280;42236;48.058;10.632;2023-03-19T00:01:39;94378.75;;;7.46;74.63
56330;BME280;42236;48.058;10.632;2023-03-19T00:04:25;94382.88;;;7.44;74.79
56330;BME280;42236;48.058;10.632;2023-03-19T00:07:12;94378.75;;;7.46;75.09
56330;BME280;42236;48.058;10.632;2023-03-19T00:09:58;94382.72;;;7.49;74.95
56330;BME280;42236;48.058;10.632;2023-03-19T00:12:44;94396.25;;;7.53;74.20
56330;BME280;42236;48.058;10.632;2023-03-19T00:15:30;94392.78;;;7.52;74.04
56330;BME280;42236;48.058;10.632;2023-03-19T00:18:16;94389.50;;;7.46;74.83
56330;BME280;42236;48.058;10.632;2023-03-19T00:21:01;94390.50;;;7.42;75.19
56330;BME280;42236;48.058;10.632;2023-03-19T00:23:47;94387.19;;;7.36;75.91
56330;BME280;42236;48.058;10.632;2023-03-19T00:26:33;94381.50;;;7.38;75.16
56330;BME280;42236;48.058;10.632;2023-03-19T00:29:19;94380.53;;;7.42;75.23
56330;BME280;42236;48.058;10.632;2023-03-19T00:32:05;94382.56;;;7.45;74.93
56330;BME280;42236;48.058;10.632;2023-03-19T00:34:51;94384.94;;;7.47;75.12
56330;BME280;42236;48.058;10.632;2023-03-19T00:37:37;94383.34;;;7.46;75.57
56330;BME280;42236;48.058;10.632;2023-03-19T00:40:23;94387.16;;;7.45;75.75
56330;BME280;42236;48.058;10.632;2023-03-19T00:43:08;94393.97;;;7.42;75.89
56330;BME280;42236;48.058;10.632;2023-03-19T00:45:54;94399.97;;;7.39;76.63
56330;BME280;42236;48.058;10.632;2023-03-19T00:48:39;94396.03;;;7.37;76.75
56330;BME280;42236;48.058;10.632;2023-03-19T00:51:25;94393.03;;;7.38;76.33
56330;BME280;42236;48.058;10.632;2023-03-19T00:54:11;94395.06;;;7.41;76.46
56330;BME280;42236;48.058;10.632;2023-03-19T00:56:57;94394.41;;;7.44;76.26
56330;BME280;42236;48.058;10.632;2023-03-19T00:59:43;94391.06;;;7.47;76.65
56330;BME280;42236;48.058;10.632;2023-03-19T01:02:30;94393.44;;;7.49;76.11
56330;BME280;42236;48.058;10.632;2023-03-19T01:05:16;94397.22;;;7.48;76.78
56330;BME280;42236;48.058;10.632;2023-03-19T01:08:02;94395.66;;;7.47;76.57
56330;BME280;42236;48.058;10.632;2023-03-19T01:10:48;94399.44;;;7.46;76.46
56330;BME280;42236;48.058;10.632;2023-03-19T01:13:33;94398.53;;;7.42;76.73
56330;BME280;42236;48.058;10.632;2023-03-19T01:16:19;94396.28;;;7.44;76.33
56330;BME280;42236;48.058;10.632;2023-03-19T01:19:05;94404.69;;;7.42;76.73
56330;BME280;42236;48.058;10.632;2023-03-19T01:21:51;94391.13;;;7.39;76.81
56330;BME280;42236;48.058;10.632;2023-03-19T01:24:37;94394.47;;;7.36;77.12
56330;BME280;42236;48.058;10.632;2023-03-19T01:27:22;94394.00;;;7.34;77.72
56330;BME280;42236;48.058;10.632;2023-03-19T01:30:08;94388.31;;;7.35;77.80
56330;BME280;42236;48.058;10.632;2023-03-19T01:32:54;94386.22;;;7.41;77.40
56330;BME280;42236;48.058;10.632;2023-03-19T01:35:40;94388.91;;;7.41;77.14
56330;BME280;42236;48.058;10.632;2023-03-19T01:38:28;94386.38;;;7.44;77.03
56330;BME280;42236;48.058;10.632;2023-03-19T01:41:13;94384.13;;;7.46;76.51
56330;BME280;42236;48.058;10.632;2023-03-19T01:43:59;94385.72;;;7.47;77.13
56330;BME280;42236;48.058;10.632;2023-03-19T01:46:46;94394.75;;;7.43;77.72
56330;BME280;42236;48.058;10.632;2023-03-19T01:49:32;94395.41;;;7.40;77.16
56330;BME280;42236;48.058;10.632;2023-03-19T01:52:18;94397.63;;;7.38;77.00
56330;BME280;42236;48.058;10.632;2023-03-19T01:55:05;94392.25;;;7.38;77.40
56330;BME280;42236;48.058;10.632;2023-03-19T01:57:51;94396.03;;;7.37;77.22
56330;BME280;42236;48.058;10.632;2023-03-19T02:00:37;94395.25;;;7.36;78.07
56330;BME280;42236;48.058;10.632;2023-03-19T02:03:24;94392.09;;;7.34;78.07
56330;BME280;42236;48.058;10.632;2023-03-19T02:06:10;94394.00;;;7.34;77.71
56330;BME280;42236;48.058;10.632;2023-03-19T02:08:58;94395.25;;;7.36;77.51
56330;BME280;42236;48.058;10.632;2023-03-19T02:11:44;94403.75;;;7.38;77.54
56330;BME280;42236;48.058;10.632;2023-03-19T02:14:29;94402.50;;;7.36;78.56
56330;BME280;42236;48.058;10.632;2023-03-19T02:17:15;94405.97;;;7.36;77.68
56330;BME280;42236;48.058;10.632;2023-03-19T02:20:16;94401.41;;;7.37;78.13
56330;BME280;42236;48.058;10.632;2023-03-19T02:23:29;94403.44;;;7.40;78.31
56330;BME280;42236;48.058;10.632;2023-03-19T02:26:19;94409.09;;;7.47;77.01
56330;BME280;42236;48.058;10.632;2023-03-19T02:29:06;94408.88;;;7.52;76.70
56330;BME280;42236;48.058;10.632;2023-03-19T02:31:51;94415.16;;;7.56;76.63
56330;BME280;42236;48.058;10.632;2023-03-19T02:34:39;94414.38;;;7.56;76.47
56330;BME280;42236;48.058;10.632;2023-03-19T02:37:29;94411.50;;;7.61;76.63
56330;BME280;42236;48.058;10.632;2023-03-19T02:40:21;94419.63;;;7.73;75.94
56330;BME280;42236;48.058;10.632;2023-03-19T02:43:08;94410.84;;;7.85;75.29
56330;BME280;42236;48.058;10.632;2023-03-19T02:45:54;94409.66;;;7.95;74.64
56330;BME280;42236;48.058;10.632;2023-03-19T02:48:40;94418.31;;;8.00;74.28
56330;BME280;42236;48.058;10.632;2023-03-19T02:51:26;94417.19;;;8.01;74.36
56330;BME280;42236;48.058;10.632;2023-03-19T02:54:11;94417.66;;;8.03;74.16
56330;BME280;42236;48.058;10.632;2023-03-19T02:56:57;94431.56;;;8.05;74.19
56330;BME280;42236;48.058;10.632;2023-03-19T02:59:43;94415.28;;;8.02;74.06
56330;BME280;42236;48.058;10.632;2023-03-19T03:02:29;94424.47;;;8.01;74.32
56330;BME280;42236;48.058;10.632;2023-03-19T03:05:15;94424.22;;;7.94;74.74
56330;BME280;42236;48.058;10.632;2023-03-19T03:08:01;94430.09;;;7.87;75.16
56330;BME280;42236;48.058;10.632;2023-03-19T03:10:48;94428.28;;;7.79;75.51
56330;BME280;42236;48.058;10.632;2023-03-19T03:13:34;94432.25;;;7.73;75.68
56330;BME280;42236;48.058;10.632;2023-03-19T03:16:20;94434.84;;;7.69;75.85
56330;BME280;42236;48.058;10.632;2023-03-19T03:19:06;94443.97;;;7.68;75.77
56330;BME280;42236;48.058;10.632;2023-03-19T03:21:52;94437.63;;;7.73;75.74
56330;BME280;42236;48.058;10.632;2023-03-19T03:24:37;94447.53;;;7.81;75.19
56330;BME280;42236;48.058;10.632;2023-03-19T03:27:23;94450.50;;;7.88;74.97
56330;BME280;42236;48.058;10.632;2023-03-19T03:30:09;94455.66;;;7.93;74.86
56330;BME280;42236;48.058;10.632;2023-03-19T03:32:55;94463.53;;;7.98;74.86
56330;BME280;42236;48.058;10.632;2023-03-19T03:35:41;94470.59;;;8.03;74.63
56330;BME280;42236;48.058;10.632;2023-03-19T03:38:26;94472.78;;;8.09;74.39
56330;BME280;42236;48.058;10.632;2023-03-19T03:41:13;94475.56;;;8.13;74.45
56330;BME280;42236;48.058;10.632;2023-03-19T03:43:58;94473.34;;;8.15;74.35
56330;BME280;42236;48.058;10.632;2023-03-19T03:46:44;94486.00;;;8.15;74.86
56330;BME280;42236;48.058;10.632;2023-03-19T03:49:29;94487.09;;;8.13;75.07
56330;BME280;42236;48.058;10.632;2023-03-19T03:52:16;94489.47;;;8.15;75.09
56330;BME280;42236;48.058;10.632;2023-03-19T03:55:01;94495.63;;;8.16;75.39
56330;BME280;42236;48.058;10.632;2023-03-19T03:57:47;94496.09;;;8.18;75.34
56330;BME280;42236;48.058;10.632;2023-03-19T04:00:33;94504.16;;;8.18;75.57
56330;BME280;42236;48.058;10.632;2023-03-19T04:03:19;94498.78;;;8.18;75.52
56330;BME280;42236;48.058;10.632;2023-03-19T04:06:05;94504.63;;;8.20;75.55
56330;BME280;42236;48.058;10.632;2023-03-19T04:08:51;94505.72;;;8.19;75.58
56330;BME280;42236;48.058;10.632;2023-03-19T04:11:37;94510.31;;;8.18;75.76
56330;BME280;42236;48.058;10.632;2023-03-19T04:14:24;94513.66;;;8.15;75.86
56330;BME280;42236;48.058;10.632;2023-03-19T04:17:09;94524.72;;;8.13;76.09
56330;BME280;42236;48.058;10.632;2023-03-19T04:19:55;94518.09;;;8.11;76.30
56330;BME280;42236;48.058;10.632;2023-03-19T04:22:41;94522.88;;;8.05;76.67
56330;BME280;42236;48.058;10.632;2023-03-19T04:25:27;94526.88;;;7.99;77.41
56330;BME280;42236;48.058;10.632;2023-03-19T04:28:15;94525.97;;;7.95;77.45
56330;BME280;42236;48.058;10.632;2023-03-19T04:31:03;94522.03;;;7.93;77.43
56330;BME280;42236;48.058;10.632;2023-03-19T04:33:49;94532.44;;;7.94;77.14
56330;BME280;42236;48.058;10.632;2023-03-19T04:36:35;94539.41;;;7.95;77.09
56330;BME280;42236;48.058;10.632;2023-03-19T04:39:21;94536.72;;;7.95;77.10
56330;BME280;42236;48.058;10.632;2023-03-19T04:42:06;94526.88;;;7.99;76.51
56330;BME280;42236;48.058;10.632;2023-03-19T04:44:52;94536.53;;;8.00;76.86
56330;BME280;42236;48.058;10.632;2023-03-19T04:47:38;94547.25;;;8.00;76.39
56330;BME280;42236;48.058;10.632;2023-03-19T04:50:23;94551.03;;;7.99;76.62
56330;BME280;42236;48.058;10.632;2023-03-19T04:53:10;94552.94;;;7.99;76.95
56330;BME280;42236;48.058;10.632;2023-03-19T04:55:56;94561.00;;;7.99;77.56
56330;BME280;42236;48.058;10.632;2023-03-19T04:58:42;94566.25;;;7.95;78.02
56330;BME280;42236;48.058;10.632;2023-03-19T05:01:27;94561.97;;;7.94;78.30
56330;BME280;42236;48.058;10.632;2023-03-19T05:04:13;94570.50;;;7.96;78.36
56330;BME280;42236;48.058;10.632;2023-03-19T05:06:59;94577.00;;;7.95;78.74
56330;BME280;42236;48.058;10.632;2023-03-19T05:09:45;94578.44;;;7.93;78.53
56330;BME280;42236;48.058;10.632;2023-03-19T05:12:32;94573.06;;;7.93;78.36
56330;BME280;42236;48.058;10.632;2023-03-19T05:15:18;94584.59;;;7.93;78.67
56330;BME280;42236;48.058;10.632;2023-03-19T05:18:03;94584.44;;;7.89;78.82
56330;BME280;42236;48.058;10.632;2023-03-19T05:20:49;94590.78;;;7.85;79.37
56330;BME280;42236;48.058;10.632;2023-03-19T05:23:35;94587.97;;;7.81;79.48
56330;BME280;42236;48.058;10.632;2023-03-19T05:26:20;94596.03;;;7.81;79.58
56330;BME280;42236;48.058;10.632;2023-03-19T05:29:06;94596.34;;;7.80;80.21
56330;BME280;42236;48.058;10.632;2023-03-19T05:31:55;94601.25;;;7.78;80.52
56330;BME280;42236;48.058;10.632;2023-03-19T05:34:41;94615.78;;;7.77;80.29
56330;BME280;42236;48.058;10.632;2023-03-19T05:37:26;94613.09;;;7.77;81.03
56330;BME280;42236;48.058;10.632;2023-03-19T05:40:12;94617.81;;;7.80;81.68
56330;BME280;42236;48.058;10.632;2023-03-19T05:42:58;94617.81;;;7.80;82.74
56330;BME280;42236;48.058;10.632;2023-03-19T05:45:49;94623.66;;;7.82;82.96
56330;BME280;42236;48.058;10.632;2023-03-19T05:48:35;94642.16;;;7.83;83.38
56330;BME280;42236;48.058;10.632;2023-03-19T05:51:22;94637.75;;;7.79;84.04
56330;BME280;42236;48.058;10.632;2023-03-19T05:54:07;94646.91;;;7.78;84.26
56330;BME280;42236;48.058;10.632;2023-03-19T05:56:53;94646.91;;;7.78;84.30
56330;BME280;42236;48.058;10.632;2023-03-19T05:59:39;94643.13;;;7.79;84.04
56330;BME280;42236;48.058;10.632;2023-03-19T06:02:25;94651.16;;;7.79;84.16
56330;BME280;42236;48.058;10.632;2023-03-19T06:05:10;94652.13;;;7.83;84.13
56330;BME280;42236;48.058;10.632;2023-03-19T06:07:56;94649.44;;;7.83;83.95
56330;BME280;42236;48.058;10.632;2023-03-19T06:10:42;94652.91;;;7.83;84.19
56330;BME280;42236;48.058;10.632;2023-03-19T06:13:27;94654.94;;;7.86;84.04
56330;BME280;42236;48.058;10.632;2023-03-19T06:16:13;94658.88;;;7.89;83.79
56330;BME280;42236;48.058;10.632;2023-03-19T06:18:59;94666.78;;;7.85;83.40
56330;BME280;42236;48.058;10.632;2023-03-19T06:21:45;94669.31;;;7.82;85.29
56330;BME280;42236;48.058;10.632;2023-03-19T06:24:30;94667.75;;;7.81;84.21
56330;BME280;42236;48.058;10.632;2023-03-19T06:27:16;94670.91;;;7.83;84.11
56330;BME280;42236;48.058;10.632;2023-03-19T06:30:02;94668.34;;;7.86;83.98
56330;BME280;42236;48.058;10.632;2023-03-19T06:32:48;94671.16;;;7.90;83.68
56330;BME280;42236;48.058;10.632;2023-03-19T06:35:34;94677.66;;;7.98;83.68
56330;BME280;42236;48.058;10.632;2023-03-19T06:38:20;94673.66;;;8.04;83.71
56330;BME280;42236;48.058;10.632;2023-03-19T06:41:06;94679.66;;;8.09;83.83
56330;BME280;42236;48.058;10.632;2023-03-19T06:43:51;94681.69;;;8.12;84.17
56330;BME280;42236;48.058;10.632;2023-03-19T06:46:37;94677.88;;;8.13;85.19
56330;BME280;42236;48.058;10.632;2023-03-19T06:49:23;94679.78;;;8.13;85.24
56330;BME280;42236;48.058;10.632;2023-03-19T06:52:09;94686.59;;;8.10;85.72
56330;BME280;42236;48.058;10.632;2023-03-19T06:54:54;94691.19;;;8.10;86.04
56330;BME280;42236;48.058;10.632;2023-03-19T06:57:40;94694.47;;;8.16;85.52
56330;BME280;42236;48.058;10.632;2023-03-19T07:00:25;94691.94;;;8.19;87.03
56330;BME280;42236;48.058;10.632;2023-03-19T07:03:12;94691.94;;;8.19;87.69
56330;BME280;42236;48.058;10.632;2023-03-19T07:05:58;94698.88;;;8.20;86.60
56330;BME280;42236;48.058;10.632;2023-03-19T07:08:43;94696.19;;;8.20;87.66
56330;BME280;42236;48.058;10.632;2023-03-19T07:11:32;94708.50;;;8.21;87.42
56330;BME280;42236;48.058;10.632;2023-03-19T07:14:17;94706.28;;;8.23;87.85
56330;BME280;42236;48.058;10.632;2023-03-19T07:17:03;94702.63;;;8.28;88.24
56330;BME280;42236;48.058;10.632;2023-03-19T07:19:49;94712.22;;;8.38;87.99
56330;BME280;42236;48.058;10.632;2023-03-19T07:22:35;94713.31;;;8.45;88.40
56330;BME280;42236;48.058;10.632;2023-03-19T07:25:21;94710.78;;;8.49;87.70
56330;BME280;42236;48.058;10.632;2023-03-19T07:28:06;94711.38;;;8.54;88.52
56330;BME280;42236;48.058;10.632;2023-03-19T07:30:52;94719.13;;;8.56;89.16
56330;BME280;42236;48.058;10.632;2023-03-19T07:33:38;94719.25;;;8.60;88.63
56330;BME280;42236;48.058;10.632;2023-03-19T07:36:24;94722.56;;;8.65;89.06
56330;BME280;42236;48.058;10.632;2023-03-19T07:39:09;94720.31;;;8.67;88.67
56330;BME280;42236;48.058;10.632;2023-03-19T07:41:55;94715.06;;;8.71;88.46
56330;BME280;42236;48.058;10.632;2023-03-19T07:44:41;94723.72;;;8.76;89.09
56330;BME280;42236;48.058;10.632;2023-03-19T07:47:26;94720.84;;;8.82;89.02
56330;BME280;42236;48.058;10.632;2023-03-19T07:50:12;94724.28;;;8.91;88.88
56330;BME280;42236;48.058;10.632;2023-03-19T07:52:58;94728.94;;;9.03;89.30
56330;BME280;42236;48.058;10.632;2023-03-19T07:55:43;94722.06;;;9.14;88.93
56330;BME280;42236;48.058;10.632;2023-03-19T07:58:29;94721.00;;;9.27;88.44
56330;BME280;42236;48.058;10.632;2023-03-19T08:01:15;94721.50;;;9.42;88.26
56330;BME280;42236;48.058;10.632;2023-03-19T08:04:00;94709.22;;;9.53;87.92
56330;BME280;42236;48.058;10.632;2023-03-19T08:06:46;94717.53;;;9.60;87.50
56330;BME280;42236;48.058;10.632;2023-03-19T08:09:32;94725.19;;;9.70;87.22
56330;BME280;42236;48.058;10.632;2023-03-19T08:12:18;94722.75;;;9.77;86.83
56330;BME280;42236;48.058;10.632;2023-03-19T08:15:04;94730.50;;;9.79;86.63
56330;BME280;42236;48.058;10.632;2023-03-19T08:18:01;94726.81;;;9.83;86.89
56330;BME280;42236;48.058;10.632;2023-03-19T08:20:48;94718.84;;;9.87;85.70
56330;BME280;42236;48.058;10.632;2023-03-19T08:23:33;94725.47;;;9.90;85.48
56330;BME280;42236;48.058;10.632;2023-03-19T08:26:20;94730.19;;;9.93;85.26
56330;BME280;42236;48.058;10.632;2023-03-19T08:29:06;94731.09;;;9.97;84.78
56330;BME280;42236;48.058;10.632;2023-03-19T08:31:53;94728.31;;;10.06;84.93
56330;BME280;42236;48.058;10.632;2023-03-19T08:34:39;94730.91;;;10.14;84.90
56330;BME280;42236;48.058;10.632;2023-03-19T08:37:25;94727.78;;;10.24;84.84
56330;BME280;42236;48.058;10.632;2023-03-19T08:40:10;94733.22;;;10.37;84.73
56330;BME280;42236;48.058;10.632;2023-03-19T08:42:56;94735.47;;;10.47;84.22
56330;BME280;42236;48.058;10.632;2023-03-19T08:45:42;94746.94;;;10.56;83.67
56330;BME280;42236;48.058;10.632;2023-03-19T08:48:28;94736.47;;;10.67;83.38
56330;BME280;42236;48.058;10.632;2023-03-19T08:51:13;94735.22;;;10.77;81.95
56330;BME280;42236;48.058;10.632;2023-03-19T08:53:59;94729.81;;;10.89;80.98
56330;BME280;42236;48.058;10.632;2023-03-19T08:56:45;94729.13;;;11.04;80.67
56330;BME280;42236;48.058;10.632;2023-03-19T08:59:31;94736.50;;;11.20;80.25
56330;BME280;42236;48.058;10.632;2023-03-19T09:02:17;94737.63;;;11.31;78.69
56330;BME280;42236;48.058;10.632;2023-03-19T09:05:02;94741.63;;;11.37;77.82
56330;BME280;42236;48.058;10.632;2023-03-19T09:07:49;94736.19;;;11.49;77.23
56330;BME280;42236;48.058;10.632;2023-03-19T09:10:35;94737.97;;;11.58;76.38
56330;BME280;42236;48.058;10.632;2023-03-19T09:13:21;94745.31;;;11.73;75.11
56330;BME280;42236;48.058;10.632;2023-03-19T09:16:07;94746.56;;;11.75;74.54
56330;BME280;42236;48.058;10.632;2023-03-19T09:18:53;94743.72;;;11.84;74.39
56330;BME280;42236;48.058;10.632;2023-03-19T09:21:38;94747.50;;;11.95;73.28
56330;BME280;42236;48.058;10.632;2023-03-19T09:24:24;94746.38;;;11.97;72.13
56330;BME280;42236;48.058;10.632;2023-03-19T09:27:10;94755.72;;;11.99;71.54
56330;BME280;42236;48.058;10.632;2023-03-19T09:29:56;94750.50;;;12.06;71.19
56330;BME280;42236;48.058;10.632;2023-03-19T09:32:42;94745.94;;;12.10;71.08
56330;BME280;42236;48.058;10.632;2023-03-19T09:35:28;94742.81;;;12.24;70.41
56330;BME280;42236;48.058;10.632;2023-03-19T09:38:15;94738.03;;;12.33;70.37
56330;BME280;42236;48.058;10.632;2023-03-19T09:47:07;94737.94;;;12.46;67.68
56330;BME280;42236;48.058;10.632;2023-03-19T09:50:08;94736.72;;;12.43;66.41
56330;BME280;42236;48.058;10.632;2023-03-19T09:55:57;94729.28;;;12.72;68.58
56330;BME280;42236;48.058;10.632;2023-03-19T09:58:46;94721.06;;;12.68;67.55
56330;BME280;42236;48.058;10.632;2023-03-19T10:01:34;94725.47;;;12.57;66.74
56330;BME280;42236;48.058;10.632;2023-03-19T10:14:15;94729.34;;;12.75;63.30
56330;BME280;42236;48.058;10.632;2023-03-19T10:17:06;94731.34;;;12.94;64.96
56330;BME280;42236;48.058;10.632;2023-03-19T10:20:02;94725.03;;;13.06;63.51
56330;BME280;42236;48.058;10.632;2023-03-19T10:23:13;94725.75;;;13.03;63.87
56330;BME280;42236;48.058;10.632;2023-03-19T10:26:03;94722.75;;;13.08;64.11
56330;BME280;42236;48.058;10.632;2023-03-19T10:29:14;94716.78;;;13.18;63.64
56330;BME280;42236;48.058;10.632;2023-03-19T10:35:06;94723.25;;;13.30;62.27
56330;BME280;42236;48.058;10.632;2023-03-19T10:37:54;94727.94;;;13.33;63.36
56330;BME280;42236;48.058;10.632;2023-03-19T10:44:02;94724.78;;;13.31;61.57
56330;BME280;42236;48.058;10.632;2023-03-19T10:46:48;94721.88;;;13.39;62.61
56330;BME280;42236;48.058;10.632;2023-03-19T10:49:34;94724.16;;;13.37;62.04
56330;BME280;42236;48.058;10.632;2023-03-19T10:52:25;94718.50;;;13.27;61.18
56330;BME280;42236;48.058;10.632;2023-03-19T10:55:16;94709.41;;;13.35;61.16
56330;BME280;42236;48.058;10.632;2023-03-19T10:58:15;94701.63;;;13.53;60.39
56330;BME280;42236;48.058;10.632;2023-03-19T11:01:06;94703.09;;;13.70;59.60
56330;BME280;42236;48.058;10.632;2023-03-19T11:04:20;94703.38;;;13.84;60.88
56330;BME280;42236;48.058;10.632;2023-03-19T11:07:12;94703.47;;;14.11;60.25
56330;BME280;42236;48.058;10.632;2023-03-19T11:10:01;94700.28;;;14.28;60.90
56330;BME280;42236;48.058;10.632;2023-03-19T11:13:22;94694.59;;;14.37;57.39
56330;BME280;42236;48.058;10.632;2023-03-19T11:16:09;94696.06;;;14.54;59.87
56330;BME280;42236;48.058;10.632;2023-03-19T11:18:55;94683.91;;;14.70;59.80
56330;BME280;42236;48.058;10.632;2023-03-19T11:21:41;94689.63;;;14.88;59.46
56330;BME280;42236;48.058;10.632;2023-03-19T11:24:27;94678.78;;;14.92;58.72
56330;BME280;42236;48.058;10.632;2023-03-19T11:27:15;94671.84;;;14.94;58.64
56330;BME280;42236;48.058;10.632;2023-03-19T11:30:03;94674.19;;;14.96;58.47
56330;BME280;42236;48.058;10.632;2023-03-19T11:32:56;94660.28;;;15.01;57.94
56330;BME280;42236;48.058;10.632;2023-03-19T11:39:17;94668.03;;;14.99;55.58
56330;BME280;42236;48.058;10.632;2023-03-19T11:42:29;94661.81;;;14.99;54.85
56330;BME280;42236;48.058;10.632;2023-03-19T11:45:31;94659.63;;;15.08;54.73
56330;BME280;42236;48.058;10.632;2023-03-19T11:51:36;94655.06;;;15.19;54.73
56330;BME280;42236;48.058;10.632;2023-03-19T11:57:45;94648.94;;;15.26;55.13
56330;BME280;42236;48.058;10.632;2023-03-19T12:00:47;94640.22;;;15.43;54.16
56330;BME280;42236;48.058;10.632;2023-03-19T12:03:50;94634.59;;;15.59;55.89
56330;BME280;42236;48.058;10.632;2023-03-19T12:19:30;94621.53;;;15.72;51.48
56330;BME280;42236;48.058;10.632;2023-03-19T12:22:52;94625.34;;;15.67;50.74
56330;BME280;42236;48.058;10.632;2023-03-19T12:29:04;94624.69;;;15.77;51.54
56330;BME280;42236;48.058;10.632;2023-03-19T12:35:28;94618.72;;;16.06;52.90
56330;BME280;42236;48.058;10.632;2023-03-19T12:41:23;94628.91;;;16.12;50.82
56330;BME280;42236;48.058;10.632;2023-03-19T12:44:25;94621.16;;;16.14;49.39
56330;BME280;42236;48.058;10.632;2023-03-19T12:47:21;94619.66;;;16.24;50.92
56330;BME280;42236;48.058;10.632;2023-03-19T12:50:12;94622.88;;;16.37;52.64
56330;BME280;42236;48.058;10.632;2023-03-19T12:53:08;94608.84;;;16.35;49.98
56330;BME280;42236;48.058;10.632;2023-03-19T12:56:01;94614.59;;;16.23;51.29
56330;BME280;42236;48.058;10.632;2023-03-19T13:02:08;94612.28;;;16.25;49.74
56330;BME280;42236;48.058;10.632;2023-03-19T13:05:34;94603.19;;;16.06;50.07
56330;BME280;42236;48.058;10.632;2023-03-19T13:11:15;94592.41;;;16.20;50.40
56330;BME280;42236;48.058;10.632;2023-03-19T13:14:24;94587.78;;;16.25;48.50
56330;BME280;42236;48.058;10.632;2023-03-19T13:17:23;94593.25;;;16.28;48.66
56330;BME280;42236;48.058;10.632;2023-03-19T13:20:21;94589.38;;;16.33;47.77
56330;BME280;42236;48.058;10.632;2023-03-19T13:23:13;94593.75;;;16.45;49.94
56330;BME280;42236;48.058;10.632;2023-03-19T13:26:04;94598.09;;;16.56;50.07
56330;BME280;42236;48.058;10.632;2023-03-19T13:32:06;94583.34;;;16.61;49.21
56330;BME280;42236;48.058;10.632;2023-03-19T13:35:11;94583.84;;;16.18;50.40
56330;BME280;42236;48.058;10.632;2023-03-19T13:38:09;94584.47;;;15.97;47.83
56330;BME280;42236;48.058;10.632;2023-03-19T13:41:03;94586.72;;;15.92;50.48
56330;BME280;42236;48.058;10.632;2023-03-19T13:43:52;94579.78;;;15.98;48.96
56330;BME280;42236;48.058;10.632;2023-03-19T13:46:40;94575.28;;;16.16;49.46
56330;BME280;42236;48.058;10.632;2023-03-19T13:49:33;94579.97;;;16.19;48.09
56330;BME280;42236;48.058;10.632;2023-03-19T13:58:25;94577.03;;;16.46;47.80
56330;BME280;42236;48.058;10.632;2023-03-19T14:01:36;94566.63;;;16.62;46.94
56330;BME280;42236;48.058;10.632;2023-03-19T14:04:32;94564.72;;;16.74;47.63
56330;BME280;42236;48.058;10.632;2023-03-19T14:07:21;94565.53;;;16.78;48.18
56330;BME280;42236;48.058;10.632;2023-03-19T14:10:30;94565.09;;;16.65;45.88
56330;BME280;42236;48.058;10.632;2023-03-19T14:13:27;94563.09;;;16.58;46.89
56330;BME280;42236;48.058;10.632;2023-03-19T14:16:18;94556.41;;;16.45;48.26
56330;BME280;42236;48.058;10.632;2023-03-19T14:19:14;94561.47;;;16.43;47.68
56330;BME280;42236;48.058;10.632;2023-03-19T14:22:15;94556.31;;;16.31;46.65
56330;BME280;42236;48.058;10.632;2023-03-19T14:25:16;94546.19;;;16.24;46.07
56330;BME280;42236;48.058;10.632;2023-03-19T14:28:08;94555.25;;;16.46;47.51
56330;BME280;42236;48.058;10.632;2023-03-19T14:30:55;94545.53;;;16.49;48.10
56330;BME280;42236;48.058;10.632;2023-03-19T14:33:55;94544.72;;;16.41;46.76
56330;BME280;42236;48.058;10.632;2023-03-19T14:36:48;94541.59;;;16.39;47.49
56330;BME280;42236;48.058;10.632;2023-03-19T14:39:39;94544.28;;;16.32;47.59
56330;BME280;42236;48.058;10.632;2023-03-19T14:42:34;94539.50;;;16.18;47.26
56330;BME280;42236;48.058;10.632;2023-03-19T14:45:48;94539.69;;;15.88;48.58
56330;BME280;42236;48.058;10.632;2023-03-19T14:52:03;94545.91;;;15.51;48.51
56330;BME280;42236;48.058;10.632;2023-03-19T14:54:56;94542.00;;;15.45;48.47
56330;BME280;42236;48.058;10.632;2023-03-19T14:57:43;94547.44;;;15.45;49.06
56330;BME280;42236;48.058;10.632;2023-03-19T15:00:39;94538.50;;;15.48;48.29
56330;BME280;42236;48.058;10.632;2023-03-19T15:03:35;94547.84;;;15.47;47.80
56330;BME280;42236;48.058;10.632;2023-03-19T15:06:24;94542.75;;;15.42;47.99
56330;BME280;42236;48.058;10.632;2023-03-19T15:09:29;94533.78;;;15.41;47.41
56330;BME280;42236;48.058;10.632;2023-03-19T15:18:10;94542.91;;;15.60;48.00
56330;BME280;42236;48.058;10.632;2023-03-19T15:20:56;94535.91;;;15.58;48.34
56330;BME280;42236;48.058;10.632;2023-03-19T15:23:46;94543.69;;;15.60;48.25
56330;BME280;42236;48.058;10.632;2023-03-19T15:26:36;94547.63;;;15.66;48.76
56330;BME280;42236;48.058;10.632;2023-03-19T15:29:32;94549.28;;;15.74;47.40
56330;BME280;42236;48.058;10.632;2023-03-19T15:32:35;94546.97;;;15.76;47.46
56330;BME280;42236;48.058;10.632;2023-03-19T15:35:24;94543.53;;;15.83;48.27
56330;BME280;42236;48.058;10.632;2023-03-19T15:38:13;94549.47;;;15.96;48.66
56330;BME280;42236;48.058;10.632;2023-03-19T15:41:12;94537.03;;;15.98;48.89
56330;BME280;42236;48.058;10.632;2023-03-19T15:43:59;94547.50;;;15.96;48.98
56330;BME280;42236;48.058;10.632;2023-03-19T15:46:46;94537.03;;;15.98;48.72
56330;BME280;42236;48.058;10.632;2023-03-19T15:49:42;94546.31;;;15.94;48.83
56330;BME280;42236;48.058;10.632;2023-03-19T15:52:34;94545.31;;;15.68;49.20
56330;BME280;42236;48.058;10.632;2023-03-19T15:55:22;94548.63;;;15.47;49.73
56330;BME280;42236;48.058;10.632;2023-03-19T15:58:16;94542.66;;;15.34;48.10
56330;BME280;42236;48.058;10.632;2023-03-19T16:01:06;94551.13;;;15.29;49.28
56330;BME280;42236;48.058;10.632;2023-03-19T16:04:30;94546.28;;;15.12;48.95
56330;BME280;42236;48.058;10.632;2023-03-19T16:07:24;94539.81;;;14.86;48.50
56330;BME280;42236;48.058;10.632;2023-03-19T16:10:41;94545.84;;;14.72;48.83
56330;BME280;42236;48.058;10.632;2023-03-19T16:13:29;94537.28;;;14.70;50.17